Time;durP1;ratioP1;P1;durP2;ratioP2;P2;SDS_P1;SDS_P2;PMS_P1;PMS_P2;Temp;Humidity;BMP_temperature;BMP_pressure;BME280_temperature;BME280_humidity;BME280_pressure;Samples;Min_cycle;Max_cycle;Signal;HPM_P1;HPM_P2
2023/07/16 00:02:12;;;;;;;6.90;3.80;;;;;;;19.04;97.60;100307.59;4937574;29;20051;-83
2023/07/16 00:04:39;;;;;;;8.60;3.80;;;;;;;18.91;97.49;100310.38;4937320;29;20087;-80
2023/07/16 00:07:06;;;;;;;8.23;4.13;;;;;;;18.93;97.22;100310.16;4936601;29;20069;-79
2023/07/16 00:09:33;;;;;;;11.60;3.92;;;;;;;18.84;97.11;100307.81;4936570;29;20086;-79
2023/07/16 00:11:59;;;;;;;7.43;3.88;;;;;;;18.94;96.23;100303.81;4936725;29;20079;-79
2023/07/16 00:14:26;;;;;;;9.82;4.10;;;;;;;18.89;96.31;100307.16;4936102;29;20524;-80
2023/07/16 00:16:53;;;;;;;7.65;4.00;;;;;;;18.89;95.86;100312.47;4937863;29;20135;-79
2023/07/16 00:19:21;;;;;;;6.70;4.13;;;;;;;18.90;95.18;100301.63;4937666;29;20094;-79
2023/07/16 00:21:47;;;;;;;9.10;3.75;;;;;;;18.90;94.86;100308.78;4936949;29;20648;-80
2023/07/16 00:24:14;;;;;;;9.65;3.45;;;;;;;18.85;95.13;100314.75;4937335;29;20131;-80
2023/07/16 00:26:43;;;;;;;6.15;3.70;;;;;;;18.86;94.84;100307.59;4937986;29;20146;-77
2023/07/16 00:29:10;;;;;;;5.90;4.00;;;;;;;18.92;94.49;100311.19;4937478;29;20107;-79
2023/07/16 00:31:37;;;;;;;10.63;3.90;;;;;;;18.85;94.50;100322.69;4935699;29;20139;-79
2023/07/16 00:34:03;;;;;;;5.75;3.78;;;;;;;18.74;94.88;100315.44;4936473;29;20472;-79
2023/07/16 00:36:31;;;;;;;8.70;4.20;;;;;;;18.75;95.02;100317.06;4937250;29;20087;-78
2023/07/16 00:38:58;;;;;;;6.65;4.28;;;;;;;18.73;95.52;100323.59;4937444;29;20055;-80
2023/07/16 00:41:24;;;;;;;9.02;3.85;;;;;;;18.70;95.46;100319.56;4937731;29;20461;-80
2023/07/16 00:43:51;;;;;;;8.00;3.97;;;;;;;18.68;95.66;100329.56;4937304;29;20139;-78
2023/07/16 00:46:18;;;;;;;6.93;4.30;;;;;;;18.62;96.01;100325.13;4938638;29;20058;-76
2023/07/16 00:48:45;;;;;;;6.93;3.97;;;;;;;18.61;95.92;100325.31;4937743;29;20055;-79
2023/07/16 00:51:12;;;;;;;5.65;3.60;;;;;;;18.58;96.09;100322.06;4937698;29;20492;-78
2023/07/16 00:53:41;;;;;;;7.68;3.95;;;;;;;18.55;96.43;100324.31;4939737;29;20524;-78
2023/07/16 00:56:08;;;;;;;10.02;3.83;;;;;;;18.54;95.90;100323.50;4940099;29;20142;-78
2023/07/16 00:58:35;;;;;;;9.48;3.92;;;;;;;18.51;95.94;100321.28;4941611;29;20059;-79
2023/07/16 01:01:02;;;;;;;6.32;3.53;;;;;;;18.46;95.91;100317.66;4948142;29;20051;-79
2023/07/16 01:03:28;;;;;;;6.43;3.78;;;;;;;18.43;96.07;100315.47;4938412;29;20083;-78
2023/07/16 01:06:00;;;;;;;6.95;3.70;;;;;;;18.38;96.31;100317.94;4937421;29;20131;-78
2023/07/16 01:08:32;;;;;;;8.10;3.70;;;;;;;18.34;96.19;100320.22;4939994;29;20047;-77
2023/07/16 01:11:01;;;;;;;5.47;3.80;;;;;;;18.26;96.74;100322.28;4940214;29;20504;-79
2023/07/16 01:13:28;;;;;;;7.88;3.80;;;;;;;18.30;96.39;100321.66;4939534;29;20111;-79
2023/07/16 01:15:55;;;;;;;6.97;3.65;;;;;;;18.19;96.83;100323.16;4938194;29;20107;-78
2023/07/16 01:18:22;;;;;;;6.40;3.42;;;;;;;18.19;96.50;100317.03;4937542;29;20051;-79
2023/07/16 01:20:49;;;;;;;8.07;3.67;;;;;;;18.15;96.20;100311.34;4938270;29;20107;-79
2023/07/16 01:23:36;;;;;;;7.47;3.38;;;;;;;18.08;96.10;100321.16;4938628;29;20131;-79
2023/07/16 01:26:24;;;;;;;7.32;3.55;;;;;;;18.08;96.38;100315.06;4949780;29;20072;-80
2023/07/16 01:29:21;;;;;;;7.50;3.80;;;;;;;18.06;96.31;100325.03;4955469;29;20031;-82
2023/07/16 01:31:51;;;;;;;5.95;3.42;;;;;;;18.10;95.39;100319.13;4952149;29;20055;-81
2023/07/16 01:34:18;;;;;;;8.13;3.67;;;;;;;18.07;94.94;100322.19;4955627;29;20059;-81
2023/07/16 01:36:46;;;;;;;5.32;3.40;;;;;;;18.06;94.81;100331.16;4951435;29;20074;-80
2023/07/16 01:39:13;;;;;;;4.85;3.60;;;;;;;18.03;94.82;100336.88;4950334;29;20051;-79
2023/07/16 01:41:39;;;;;;;6.43;3.97;;;;;;;18.01;94.29;100333.63;4946221;29;20542;-79
2023/07/16 01:44:06;;;;;;;4.93;3.53;;;;;;;17.97;94.83;100340.38;4943853;29;20082;-80
2023/07/16 01:46:34;;;;;;;5.80;3.50;;;;;;;17.97;94.30;100340.38;4944283;29;20143;-80
2023/07/16 01:49:01;;;;;;;7.18;3.80;;;;;;;17.94;94.50;100345.28;4941731;29;20054;-79
2023/07/16 01:51:27;;;;;;;7.30;3.67;;;;;;;17.91;94.33;100346.53;4941153;29;20494;-81
2023/07/16 01:53:54;;;;;;;6.78;3.60;;;;;;;17.88;94.34;100358.34;4934182;29;20055;-80
2023/07/16 01:56:21;;;;;;;7.90;3.75;;;;;;;17.87;93.81;100356.72;4940624;29;20484;-80
2023/07/16 01:58:47;;;;;;;8.25;3.60;;;;;;;17.84;93.86;100356.31;4940290;29;20123;-82
2023/07/16 02:01:14;;;;;;;7.43;3.45;;;;;;;17.79;93.42;100351.66;4940058;29;20056;-81
2023/07/16 02:03:42;;;;;;;9.43;3.80;;;;;;;17.83;93.27;100358.16;4940436;29;20094;-82
2023/07/16 02:06:08;;;;;;;7.85;3.53;;;;;;;17.81;92.65;100354.91;4939985;29;20055;-82
2023/07/16 02:08:35;;;;;;;7.63;3.42;;;;;;;17.81;91.88;100351.44;4939979;29;20048;-81
2023/07/16 02:11:01;;;;;;;6.22;3.53;;;;;;;17.79;91.47;100348.19;4939881;29;20135;-81
2023/07/16 02:13:28;;;;;;;9.43;3.58;;;;;;;17.79;91.26;100359.59;4940055;29;20056;-81
2023/07/16 02:15:55;;;;;;;7.28;3.50;;;;;;;17.77;90.86;100350.25;4939959;29;20060;-79
2023/07/16 02:18:21;;;;;;;6.20;3.17;;;;;;;17.71;90.65;100354.53;4939630;29;20059;-80
2023/07/16 02:20:50;;;;;;;10.88;3.90;;;;;;;17.74;90.32;100362.06;4939768;29;20079;-82
2023/07/16 02:23:16;;;;;;;9.18;3.63;;;;;;;17.74;90.00;100358.59;4940427;29;20059;-80
2023/07/16 02:25:43;;;;;;;6.40;3.92;;;;;;;17.70;89.58;100355.56;4940189;29;20108;-81
2023/07/16 02:28:10;;;;;;;8.65;3.13;;;;;;;17.70;89.21;100360.84;4940140;29;20086;-81
2023/07/16 02:30:36;;;;;;;4.97;3.25;;;;;;;17.63;89.04;100367.97;4939157;29;20084;-79
2023/07/16 02:33:03;;;;;;;4.82;3.30;;;;;;;17.63;88.96;100370.59;4937692;29;20086;-79
2023/07/16 02:35:30;;;;;;;7.63;3.50;;;;;;;17.65;87.88;100365.94;4938086;29;20047;-79
2023/07/16 02:37:58;;;;;;;13.02;3.97;;;;;;;17.61;87.67;100363.91;4939035;29;20086;-77
2023/07/16 02:40:24;;;;;;;7.00;3.60;;;;;;;17.61;87.64;100371.84;4938031;29;20061;-79
2023/07/16 02:42:51;;;;;;;6.57;3.58;;;;;;;17.58;87.31;100386.28;4940005;29;20142;-80
2023/07/16 02:45:18;;;;;;;5.00;3.13;;;;;;;17.51;87.16;100382.84;4939596;29;20058;-80
2023/07/16 02:47:44;;;;;;;5.68;3.28;;;;;;;17.50;87.07;100375.94;4939401;29;20087;-80
2023/07/16 02:50:11;;;;;;;10.63;3.80;;;;;;;17.48;86.96;100384.09;4938636;29;20083;-81
2023/07/16 02:52:38;;;;;;;5.57;3.50;;;;;;;17.44;86.48;100387.38;4939330;29;20580;-82
2023/07/16 02:55:07;;;;;;;10.88;3.70;;;;;;;17.42;86.32;100390.22;4938358;29;20086;-80
2023/07/16 02:57:33;;;;;;;5.70;3.70;;;;;;;17.41;86.00;100391.22;4939132;29;20061;-78
2023/07/16 03:00:00;;;;;;;7.22;3.70;;;;;;;17.39;86.09;100393.28;4939545;29;20048;-80
2023/07/16 03:02:26;;;;;;;7.13;3.17;;;;;;;17.42;85.41;100389.41;4940113;29;20142;-80
2023/07/16 03:04:54;;;;;;;7.63;3.60;;;;;;;17.39;84.95;100387.16;4938950;29;20138;-78
2023/07/16 03:07:20;;;;;;;8.68;3.33;;;;;;;17.37;85.06;100389.19;4938438;29;20083;-80
2023/07/16 03:09:47;;;;;;;10.52;3.63;;;;;;;17.40;84.06;100392.25;4937858;29;20111;-79
2023/07/16 03:12:15;;;;;;;10.40;3.45;;;;;;;17.38;84.38;100401.41;4939809;29;20106;-80
2023/07/16 03:14:42;;;;;;;9.10;3.70;;;;;;;17.34;83.98;100406.28;4939403;29;20059;-80
2023/07/16 03:17:08;;;;;;;10.82;3.65;;;;;;;17.37;83.58;100407.72;4938865;29;20055;-80
2023/07/16 03:19:35;;;;;;;8.27;3.88;;;;;;;17.36;83.83;100409.53;4940552;29;20052;-80
2023/07/16 03:22:02;;;;;;;6.78;3.25;;;;;;;17.32;83.93;100410.16;4941252;29;20188;-79
2023/07/16 03:24:29;;;;;;;8.43;3.60;;;;;;;17.26;84.06;100422.38;4939132;29;20059;-82
2023/07/16 03:26:55;;;;;;;6.32;4.13;;;;;;;17.24;84.37;100427.03;4938765;29;20059;-78
2023/07/16 03:29:23;;;;;;;8.20;4.07;;;;;;;17.20;84.10;100420.53;4938412;29;20058;-79
2023/07/16 03:31:50;;;;;;;10.73;3.78;;;;;;;17.13;85.13;100430.28;4937709;29;20107;-80
2023/07/16 03:34:17;;;;;;;6.30;3.83;;;;;;;17.12;84.62;100431.31;4941305;29;20134;-79
2023/07/16 03:36:43;;;;;;;6.97;3.53;;;;;;;17.06;84.84;100429.47;4941594;29;20091;-80
2023/07/16 03:39:10;;;;;;;6.13;3.72;;;;;;;17.03;84.76;100443.91;4940245;29;20127;-80
2023/07/16 03:41:36;;;;;;;9.35;3.88;;;;;;;17.00;84.42;100438.25;4938361;29;20134;-80
2023/07/16 03:44:03;;;;;;;8.57;3.80;;;;;;;16.97;84.97;100449.22;4938067;29;20138;-79
2023/07/16 03:46:31;;;;;;;7.88;3.88;;;;;;;16.96;84.81;100452.88;4938270;29;20088;-80
2023/07/16 03:48:58;;;;;;;6.72;3.97;;;;;;;16.92;85.17;100455.09;4940281;29;20048;-78
2023/07/16 03:51:24;;;;;;;11.25;4.20;;;;;;;16.92;85.00;100461.22;4936067;29;20138;-78
2023/07/16 03:53:51;;;;;;;8.55;4.25;;;;;;;17.00;83.46;100452.28;4937393;29;20052;-80
2023/07/16 03:56:17;;;;;;;6.90;3.90;;;;;;;16.89;83.75;100464.25;4937532;29;20488;-81
2023/07/16 03:58:44;;;;;;;9.13;4.07;;;;;;;16.92;83.43;100458.56;4937816;29;20131;-81
2023/07/16 04:01:11;;;;;;;11.52;4.03;;;;;;;16.78;84.52;100472.75;4937671;29;20086;-79
2023/07/16 04:03:39;;;;;;;8.45;4.47;;;;;;;16.69;85.19;100484.53;4937741;29;20522;-79
2023/07/16 04:06:09;;;;;;;10.57;3.90;;;;;;;16.73;85.34;100485.75;4937351;29;20126;-78
2023/07/16 04:08:35;;;;;;;7.93;3.65;;;;;;;17.06;84.57;100495.56;4937768;29;20474;-77
2023/07/16 04:11:02;;;;;;;8.43;3.85;;;;;;;17.41;83.64;100502.31;4937692;29;20135;-79
2023/07/16 04:13:29;;;;;;;7.00;3.95;;;;;;;17.61;81.98;100489.06;4936156;29;20052;-79
2023/07/16 04:15:57;;;;;;;7.70;3.58;;;;;;;17.98;81.11;100484.94;4937162;29;20114;-80
2023/07/16 04:18:24;;;;;;;8.43;3.85;;;;;;;18.29;80.27;100489.56;4937494;29;20419;-78
2023/07/16 04:20:52;;;;;;;7.53;3.90;;;;;;;18.46;78.73;100480.06;4937314;29;20147;-80
2023/07/16 04:23:18;;;;;;;13.02;3.83;;;;;;;18.39;78.86;100495.22;4938100;29;20218;-81
2023/07/16 04:25:45;;;;;;;10.23;4.20;;;;;;;18.31;78.77;100490.16;4938192;29;20140;-80
2023/07/16 04:28:12;;;;;;;11.02;3.80;;;;;;;18.19;79.03;100497.13;4937611;29;20567;-80
2023/07/16 04:30:39;;;;;;;9.93;3.90;;;;;;;18.19;80.05;100505.06;4937652;29;20134;-80
2023/07/16 04:33:06;;;;;;;8.18;3.78;;;;;;;18.99;77.77;100500.22;4938430;29;20158;-79
2023/07/16 04:35:33;;;;;;;9.30;3.72;;;;;;;19.39;76.09;100504.19;4937981;29;20059;-81
2023/07/16 04:38:01;;;;;;;9.75;3.75;;;;;;;19.24;76.02;100506.38;4938367;29;20476;-80
2023/07/16 04:40:29;;;;;;;9.27;4.20;;;;;;;19.03;76.81;100510.19;4937992;29;20058;-80
2023/07/16 04:42:56;;;;;;;9.35;4.05;;;;;;;18.62;77.65;100513.28;4937979;29;20048;-82
2023/07/16 04:45:22;;;;;;;11.50;4.03;;;;;;;18.26;79.22;100523.59;4937613;29;20062;-81
2023/07/16 04:47:49;;;;;;;10.68;3.90;;;;;;;18.16;80.11;100534.59;4938186;29;20055;-81
2023/07/16 04:50:16;;;;;;;11.18;4.35;;;;;;;18.26;79.84;100528.88;4938844;29;20139;-82
2023/07/16 04:52:42;;;;;;;9.48;4.00;;;;;;;18.64;79.35;100532.44;4938429;29;20126;-79
2023/07/16 04:55:10;;;;;;;7.53;3.97;;;;;;;19.05;78.45;100545.25;4939225;29;20452;-82
2023/07/16 04:57:37;;;;;;;8.63;4.00;;;;;;;19.03;78.20;100527.91;4938156;29;20060;-80
2023/07/16 05:00:05;;;;;;;8.60;4.25;;;;;;;19.12;78.14;100532.75;4937482;29;20107;-80
2023/07/16 05:02:32;;;;;;;10.30;4.07;;;;;;;19.40;77.81;100542.16;4937145;29;20056;-80
2023/07/16 05:04:59;;;;;;;8.95;4.30;;;;;;;19.51;76.85;100534.34;4937028;29;20114;-81
2023/07/16 05:07:25;;;;;;;7.40;4.35;;;;;;;19.80;76.36;100545.34;4937545;29;20075;-80
2023/07/16 05:09:52;;;;;;;9.73;3.90;;;;;;;19.92;76.06;100540.91;4937153;29;20104;-80
2023/07/16 05:12:20;;;;;;;6.85;3.95;;;;;;;19.91;75.26;100539.28;4937207;29;20083;-81
2023/07/16 05:14:48;;;;;;;10.52;4.25;;;;;;;19.94;75.57;100538.84;4937976;29;20452;-79
2023/07/16 05:17:15;;;;;;;9.27;4.38;;;;;;;20.04;74.94;100538.34;4938866;29;20135;-81
2023/07/16 05:19:42;;;;;;;11.70;4.40;;;;;;;20.00;75.60;100543.28;4941027;29;20496;-80
2023/07/16 05:22:08;;;;;;;10.27;4.53;;;;;;;20.09;75.13;100547.28;4940482;29;20143;-79
2023/07/16 05:24:35;;;;;;;11.25;4.82;;;;;;;20.41;74.04;100550.63;4939653;29;20123;-78
2023/07/16 05:27:02;;;;;;;7.32;4.55;;;;;;;21.31;71.26;100555.16;4938907;29;20163;-79
2023/07/16 05:29:30;;;;;;;10.75;4.82;;;;;;;22.31;68.81;100553.25;4941811;29;20051;-77
2023/07/16 05:31:57;;;;;;;8.93;4.70;;;;;;;23.02;65.83;100551.19;4932398;29;20134;-78
2023/07/16 05:34:23;;;;;;;10.40;4.20;;;;;;;23.71;64.47;100559.81;4938004;29;20055;-79
2023/07/16 05:36:50;;;;;;;7.53;4.22;;;;;;;24.14;63.68;100559.09;4941350;29;20150;-77
2023/07/16 05:39:16;;;;;;;6.25;3.97;;;;;;;24.74;61.35;100566.28;4942201;29;20131;-79
2023/07/16 05:41:44;;;;;;;7.90;4.07;;;;;;;25.12;60.06;100563.47;4941365;29;20534;-80
2023/07/16 05:44:11;;;;;;;8.38;4.68;;;;;;;25.44;59.05;100574.22;4940735;29;20135;-81
2023/07/16 05:46:39;;;;;;;8.88;4.50;;;;;;;24.79;59.42;100572.50;4942080;29;20112;-81
2023/07/16 05:49:06;;;;;;;7.70;4.45;;;;;;;25.58;58.75;100579.94;4942962;29;20130;-81
2023/07/16 05:51:32;;;;;;;6.00;4.32;;;;;;;25.85;56.58;100574.53;4940961;29;20059;-82
2023/07/16 05:53:59;;;;;;;8.70;4.60;;;;;;;25.91;56.76;100576.19;4940845;29;20066;-82
2023/07/16 05:56:26;;;;;;;12.35;5.15;;;;;;;25.81;56.59;100575.31;4943922;29;20116;-81
2023/07/16 05:58:52;;;;;;;7.95;4.50;;;;;;;25.51;56.98;100579.38;4945595;29;20048;-81
2023/07/16 06:01:19;;;;;;;9.40;5.07;;;;;;;26.29;55.58;100572.38;4945216;29;20091;-79
2023/07/16 06:03:47;;;;;;;8.27;4.40;;;;;;;26.22;55.10;100562.94;4940206;29;20051;-79
2023/07/16 06:06:13;;;;;;;7.75;4.88;;;;;;;26.52;54.72;100573.81;4940831;29;20119;-80
2023/07/16 06:08:40;;;;;;;7.80;4.60;;;;;;;26.40;54.26;100573.25;4940806;29;20052;-80
2023/07/16 06:11:06;;;;;;;9.30;5.05;;;;;;;25.13;55.17;100567.78;4940341;29;20135;-79
2023/07/16 06:13:33;;;;;;;8.77;5.53;;;;;;;25.10;56.17;100573.63;4940580;29;20416;-80
2023/07/16 06:16:00;;;;;;;8.77;5.30;;;;;;;25.79;54.58;100580.94;4940227;29;20103;-81
2023/07/16 06:18:26;;;;;;;7.03;5.00;;;;;;;26.23;53.50;100569.94;4942035;29;20131;-78
2023/07/16 06:20:55;;;;;;;9.50;5.43;;;;;;;26.67;52.78;100565.84;4937682;29;20073;-78
2023/07/16 06:23:21;;;;;;;10.00;5.50;;;;;;;25.81;52.96;100564.59;4937807;29;20062;-79
2023/07/16 06:25:49;;;;;;;10.88;5.75;;;;;;;26.38;52.83;100567.34;4938435;29;20321;-79
2023/07/16 06:31:45;;;;;;;9.63;5.70;;;;;;;25.85;52.98;100563.81;4218924;26;20055;-81
2023/07/16 06:40:48;;;;;;;12.07;6.28;;;;;;;25.67;51.97;100564.22;4902565;29;20059;-82
2023/07/16 06:43:15;;;;;;;11.60;5.90;;;;;;;26.81;50.79;100570.72;4922871;29;20083;-81
2023/07/16 06:45:42;;;;;;;10.35;6.07;;;;;;;26.40;51.18;100573.25;4950119;28;20061;-79
2023/07/16 06:48:08;;;;;;;12.60;5.90;;;;;;;26.24;52.01;100572.34;4959759;28;20083;-79
2023/07/16 06:50:35;;;;;;;8.70;6.00;;;;;;;26.80;50.05;100569.09;4959576;28;20151;-79
2023/07/16 06:53:02;;;;;;;10.52;6.00;;;;;;;26.51;50.68;100566.84;4964867;28;20061;-79
2023/07/16 06:55:29;;;;;;;9.27;5.80;;;;;;;26.83;50.17;100577.44;4963623;28;20059;-80
2023/07/16 06:57:57;;;;;;;7.70;5.90;;;;;;;26.46;50.21;100569.53;4968491;28;20115;-78
2023/07/16 07:00:23;;;;;;;11.50;6.45;;;;;;;28.05;48.29;100569.41;4967895;28;20139;-79
2023/07/16 07:02:50;;;;;;;10.55;5.40;;;;;;;27.37;48.53;100563.56;4957265;28;20141;-79
2023/07/16 07:05:17;;;;;;;7.20;5.30;;;;;;;27.16;49.00;100568.09;4959471;28;20134;-78
2023/07/16 07:07:44;;;;;;;9.38;5.70;;;;;;;27.87;48.51;100573.50;4959514;28;20119;-79
2023/07/16 07:10:12;;;;;;;9.90;6.20;;;;;;;27.62;47.68;100565.44;4959768;28;20090;-80
2023/07/16 07:12:39;;;;;;;8.43;5.72;;;;;;;27.18;48.61;100582.06;4961224;28;20599;-80
2023/07/16 07:15:09;;;;;;;11.15;5.70;;;;;;;27.38;48.00;100570.56;4968581;28;20055;-81
2023/07/16 07:17:36;;;;;;;9.45;6.15;;;;;;;27.31;48.25;100568.13;4959825;28;20051;-81
2023/07/16 07:20:04;;;;;;;11.60;6.22;;;;;;;27.57;48.17;100584.22;4958295;28;20063;-79
2023/07/16 07:22:31;;;;;;;11.13;5.75;;;;;;;28.16;47.07;100559.41;4957494;28;20087;-80
2023/07/16 07:24:58;;;;;;;10.32;6.45;;;;;;;27.17;48.08;100558.97;4957398;28;20051;-81
2023/07/16 07:27:25;;;;;;;11.77;6.25;;;;;;;27.33;48.38;100583.97;4965653;28;20126;-79
2023/07/16 07:29:52;;;;;;;12.25;5.93;;;;;;;27.48;47.91;100559.78;4954762;28;20051;-78
2023/07/16 07:32:21;;;;;;;9.98;6.10;;;;;;;27.00;48.97;100569.16;4957321;28;20273;-79
2023/07/16 07:34:47;;;;;;;11.55;6.18;;;;;;;27.41;49.45;100578.84;4957130;28;20055;-79
2023/07/16 07:37:14;;;;;;;9.43;5.80;;;;;;;27.66;49.05;100571.91;4957260;28;20058;-79
2023/07/16 07:39:41;;;;;;;7.43;5.32;;;;;;;27.29;48.35;100564.09;4962288;28;20138;-79
2023/07/16 07:42:09;;;;;;;10.32;5.53;;;;;;;28.22;47.26;100569.13;4957606;28;20043;-79
2023/07/16 07:44:36;;;;;;;9.68;6.45;;;;;;;28.31;47.45;100564.78;4958514;28;20054;-79
2023/07/16 07:47:03;;;;;;;9.05;5.80;;;;;;;27.79;47.28;100565.97;4958590;28;20468;-78
2023/07/16 07:49:31;;;;;;;8.80;6.18;;;;;;;28.35;46.80;100568.53;4958692;28;20105;-79
2023/07/16 07:51:57;;;;;;;9.35;5.45;;;;;;;28.63;46.68;100565.16;4967161;28;20134;-78
2023/07/16 07:54:24;;;;;;;14.25;6.38;;;;;;;28.32;46.51;100569.88;4959454;28;20079;-78
2023/07/16 07:56:51;;;;;;;10.77;5.60;;;;;;;26.90;48.55;100566.44;4959696;28;20055;-78
2023/07/16 07:59:17;;;;;;;10.82;5.95;;;;;;;28.45;46.84;100568.47;4958619;28;20134;-80
2023/07/16 08:01:44;;;;;;;9.95;5.90;;;;;;;28.86;46.84;100568.28;4968013;28;20138;-79
2023/07/16 08:04:10;;;;;;;9.45;5.72;;;;;;;27.98;47.76;100580.44;4959704;28;20127;-80
2023/07/16 08:06:38;;;;;;;11.63;6.38;;;;;;;25.81;50.42;100578.81;4967936;28;20046;-81
2023/07/16 08:09:05;;;;;;;8.68;5.85;;;;;;;26.12;50.04;100563.69;4964966;28;20135;-81
2023/07/16 08:11:32;;;;;;;14.95;6.35;;;;;;;25.34;51.08;100567.97;4963691;28;20520;-79
2023/07/16 08:13:58;;;;;;;14.05;6.10;;;;;;;25.95;50.69;100582.66;4964683;28;20097;-81
2023/07/16 08:16:28;;;;;;;11.93;6.22;;;;;;;26.09;50.27;100564.22;4963829;28;20125;-80
2023/07/16 08:22:09;;;;;;;10.40;6.28;;;;;;;26.43;49.80;100565.50;4904682;29;20052;-81
2023/07/16 08:41:36;;;;;;;;;;;;;;;;;;;;;
2023/07/16 09:00:40;;;;;;;6.97;5.13;;;;;;;28.69;44.59;100526.34;1305467;26;20065;-81
2023/07/16 10:27:14;;;;;;;8.32;4.32;;;;;;;25.86;49.99;100581.53;4879350;29;20136;-79
2023/07/16 10:37:13;;;;;;;7.35;4.60;;;;;;;26.23;49.15;100569.94;4894479;29;20505;-78
2023/07/16 11:22:30;;;;;;;9.25;5.18;;;;;;;25.87;49.47;100588.50;5242231;23;20460;-88
2023/07/16 11:24:57;;;;;;;9.02;4.78;;;;;;;24.85;50.17;100581.38;4959236;28;20121;-87
2023/07/16 11:27:26;;;;;;;7.93;5.00;;;;;;;25.22;50.35;100586.06;4959733;28;20082;-88
2023/07/16 11:29:54;;;;;;;9.75;4.40;;;;;;;25.94;49.28;100581.03;4959668;28;20054;-88
2023/07/16 11:32:32;;;;;;;6.95;5.07;;;;;;;26.46;48.90;100580.28;4960210;29;20083;-88
2023/07/16 11:35:02;;;;;;;7.00;4.53;;;;;;;26.53;48.72;100596.91;4963898;29;20070;-87
2023/07/16 11:37:31;;;;;;;6.47;4.70;;;;;;;26.80;47.78;100590.56;4961047;29;20047;-91
2023/07/16 11:40:02;;;;;;;8.85;5.00;;;;;;;26.87;47.46;100583.88;4962819;28;20075;-92
2023/07/16 11:42:30;;;;;;;6.78;4.90;;;;;;;26.88;48.54;100598.94;4962629;28;20055;-90
2023/07/16 11:44:59;;;;;;;7.63;4.80;;;;;;;26.72;48.67;100579.28;4963514;29;20086;-90
2023/07/16 11:50:18;;;;;;;5.85;4.60;;;;;;;26.90;47.18;100585.22;4960200;28;20055;-91
2023/07/16 11:52:54;;;;;;;7.57;4.50;;;;;;;26.47;48.11;100592.59;4961803;29;20106;-90
2023/07/16 11:55:21;;;;;;;6.03;4.53;;;;;;;26.26;47.93;100590.88;4963855;29;20055;-90
2023/07/16 11:57:48;;;;;;;6.50;4.70;;;;;;;26.58;48.41;100586.19;4962424;29;20043;-90
2023/07/16 12:00:17;;;;;;;6.38;4.60;;;;;;;26.36;48.02;100607.03;4965365;29;20512;-92
2023/07/16 12:02:50;;;;;;;9.52;5.07;;;;;;;26.05;48.21;100604.16;4963705;28;20062;-90
2023/07/16 12:05:17;;;;;;;8.25;4.78;;;;;;;26.49;48.88;100608.44;4961734;28;20055;-90
2023/07/16 12:07:44;;;;;;;8.38;5.07;;;;;;;25.36;49.47;100606.03;4962772;28;20051;-91
2023/07/16 12:10:24;;;;;;;7.55;4.90;;;;;;;25.66;49.08;100613.53;4961482;28;20491;-90
2023/07/16 12:12:51;;;;;;;7.00;5.00;;;;;;;25.98;48.91;100594.75;4962011;28;20465;-91
2023/07/16 12:15:17;;;;;;;6.72;4.78;;;;;;;25.46;48.95;100603.44;4962488;29;20051;-89
2023/07/16 12:17:44;;;;;;;8.60;4.47;;;;;;;25.52;49.29;100591.66;4961886;28;20489;-93
2023/07/16 12:20:12;;;;;;;9.98;4.65;;;;;;;26.30;48.65;100595.44;4960707;28;20490;-92
2023/07/16 12:22:38;;;;;;;6.88;4.60;;;;;;;26.74;48.21;100603.97;4960081;28;20054;-88
2023/07/16 12:25:06;;;;;;;5.97;4.70;;;;;;;26.34;47.71;100585.03;4959193;28;20503;-90
2023/07/16 12:30:39;;;;;;;11.27;5.38;;;;;;;26.11;47.84;100595.06;4961087;29;20114;-89
2023/07/16 12:33:05;;;;;;;7.00;4.32;;;;;;;26.34;47.74;100593.09;4960869;28;20119;-90
2023/07/16 12:35:32;;;;;;;7.78;5.20;;;;;;;26.67;47.43;100595.34;4961959;29;20051;-90
2023/07/16 12:37:59;;;;;;;8.27;4.75;;;;;;;27.25;46.63;100596.06;4961702;29;20453;-91
2023/07/16 12:40:28;;;;;;;8.32;4.68;;;;;;;27.51;45.76;100594.19;4967614;29;20055;-90
2023/07/16 12:43:16;;;;;;;6.82;4.88;;;;;;;26.87;46.09;100600.00;4970522;28;20385;-90
2023/07/16 12:45:43;;;;;;;6.38;4.68;;;;;;;26.37;47.16;100603.28;4960809;29;20082;-89
2023/07/16 12:48:10;;;;;;;7.97;4.88;;;;;;;25.66;47.38;100606.28;4961014;29;20054;-89
2023/07/16 12:50:40;;;;;;;8.45;5.15;;;;;;;25.62;47.69;100597.13;4960585;29;20155;-89
2023/07/16 12:53:06;;;;;;;9.38;5.10;;;;;;;25.77;48.09;100607.19;4960607;28;20397;-89
2023/07/16 12:55:33;;;;;;;8.25;5.18;;;;;;;25.52;48.58;100610.44;4961591;28;20083;-91
2023/07/16 12:58:00;;;;;;;10.00;5.07;;;;;;;25.34;48.69;100613.50;4960736;28;20058;-90
2023/07/16 13:00:28;;;;;;;8.50;4.82;;;;;;;25.50;48.94;100628.66;4959339;29;20055;-88
2023/07/16 13:02:55;;;;;;;8.20;4.85;;;;;;;25.69;48.46;100608.47;4959968;28;20089;-87
2023/07/16 13:05:22;;;;;;;13.13;4.90;;;;;;;25.89;48.05;100607.81;4959323;29;20130;-88
2023/07/16 13:07:48;;;;;;;8.07;5.53;;;;;;;25.81;48.84;100629.72;4960451;29;20047;-89
2023/07/16 13:10:15;;;;;;;8.05;4.97;;;;;;;25.73;48.35;100608.75;4959848;29;20134;-90
2023/07/16 13:12:42;;;;;;;7.05;5.20;;;;;;;25.78;48.44;100614.16;4960964;29;20535;-92
2023/07/16 13:15:10;;;;;;;8.00;4.65;;;;;;;26.01;48.32;100623.69;4960238;28;20131;-91
2023/07/16 13:17:38;;;;;;;9.27;4.88;;;;;;;25.97;47.63;100620.75;4961278;29;20109;-90
2023/07/16 13:20:06;;;;;;;7.32;4.60;;;;;;;26.18;47.46;100616.28;4961434;29;20054;-87
2023/07/16 13:22:33;;;;;;;7.95;5.80;;;;;;;26.51;47.50;100606.28;4960525;29;20135;-90
2023/07/16 13:25:00;;;;;;;8.38;5.53;;;;;;;26.43;47.34;100607.63;4959661;29;20090;-89
2023/07/16 13:27:27;;;;;;;8.82;5.43;;;;;;;26.38;47.32;100596.88;4958172;28;20058;-90
2023/07/16 13:29:54;;;;;;;7.18;4.90;;;;;;;26.21;47.05;100609.59;4960026;29;20480;-90
2023/07/16 13:32:20;;;;;;;8.38;4.93;;;;;;;26.69;46.51;100617.38;4959192;29;20062;-89
2023/07/16 13:34:49;;;;;;;9.23;4.65;;;;;;;26.40;46.99;100597.41;4960133;29;20253;-91
2023/07/16 13:37:16;;;;;;;7.97;4.30;;;;;;;26.43;47.18;100616.47;4959692;28;20043;-90
2023/07/16 13:39:43;;;;;;;11.52;6.88;;;;;;;26.65;46.61;100610.09;4962190;29;20055;-89
2023/07/16 13:42:10;;;;;;;8.00;4.30;;;;;;;26.47;46.73;100614.06;4963492;28;20057;-88
2023/07/16 13:44:37;;;;;;;6.90;4.38;;;;;;;26.30;47.23;100641.06;4964604;28;20161;-86
2023/07/16 13:47:04;;;;;;;8.25;4.15;;;;;;;26.07;47.82;100633.38;4964346;28;20193;-87
2023/07/16 13:49:31;;;;;;;8.15;5.22;;;;;;;26.42;47.34;100622.09;4965990;28;20047;-93
2023/07/16 13:51:59;;;;;;;8.55;4.55;;;;;;;26.55;47.04;100635.03;4965300;28;20078;-89
2023/07/16 13:54:26;;;;;;;7.63;4.15;;;;;;;26.24;47.30;100630.56;4963829;29;20118;-89
2023/07/16 13:56:53;;;;;;;8.10;4.25;;;;;;;26.42;47.74;100627.47;4962535;28;20549;-89
2023/07/16 13:59:19;;;;;;;11.05;4.10;;;;;;;26.65;47.25;100632.38;4962176;28;20059;-91
2023/07/16 14:01:47;;;;;;;6.50;4.13;;;;;;;26.73;46.44;100610.41;4962326;28;20103;-90
2023/07/16 14:04:13;;;;;;;9.23;4.43;;;;;;;26.55;47.29;100621.59;4965624;28;20116;-88
2023/07/16 14:06:40;;;;;;;9.20;4.22;;;;;;;26.60;47.09;100620.81;4965397;28;20424;-89
2023/07/16 14:09:08;;;;;;;5.15;3.97;;;;;;;26.31;46.75;100620.44;4964298;28;20077;-90
2023/07/16 14:11:35;;;;;;;5.40;3.85;;;;;;;26.01;46.92;100610.28;4960608;28;20117;-90
2023/07/16 14:14:02;;;;;;;7.25;3.78;;;;;;;25.92;47.19;100623.38;4963389;28;20086;-89
2023/07/16 14:16:28;;;;;;;9.15;4.05;;;;;;;25.77;47.76;100616.03;4962062;28;20055;-87
2023/07/16 14:18:56;;;;;;;8.45;4.78;;;;;;;25.99;47.71;100633.91;4965000;28;20066;-90
2023/07/16 14:21:22;;;;;;;7.80;4.05;;;;;;;25.81;47.75;100615.53;4963304;28;20066;-89
2023/07/16 14:23:50;;;;;;;8.20;4.47;;;;;;;26.32;47.85;100632.78;4962110;28;20424;-88
2023/07/16 14:26:18;;;;;;;6.53;4.47;;;;;;;26.65;47.48;100632.38;4963411;29;20047;-90
2023/07/16 14:28:46;;;;;;;5.75;4.00;;;;;;;26.66;47.33;100617.09;4963662;29;20055;-89
2023/07/16 14:31:13;;;;;;;9.23;4.47;;;;;;;26.80;46.97;100604.00;4963491;29;20130;-88
2023/07/16 14:33:40;;;;;;;6.95;4.25;;;;;;;26.73;47.22;100610.41;4961456;29;20047;-87